Terminal Aerodrome Forecast
Issued by NWS

Home | Current Version | Previous Version | Graphics & Text | Print | Product List | Glossary On
Versions: 1 2 3 4 5 6 7 8 9 10 11 12 13 14 15 16 17 18
088
FTUS43 KGRB 221130
TAFAUW
TAF
KAUW 221130Z 2212/2312 VRB03KT P6SM BKN150
     FM221500 23005KT P6SM SCT045
     FM230100 VRB03KT P6SM SKC
      TEMPO 2307/2311 3SM BR=

USA.gov is the U.S. government's official web portal to all federal, state and local government web resources and services.